sensor_id;sensor_type;location;lat;lon;timestamp;P1;durP1;ratioP1;P2;durP2;ratioP2
6374;SDS011;35400;45.472;-122.822;2024-01-30T00:02:00;1.10;;;1.00;;
6374;SDS011;35400;45.472;-122.822;2024-01-30T00:04:27;1.20;;;1.10;;
6374;SDS011;35400;45.472;-122.822;2024-01-30T00:06:53;1.13;;;1.00;;
6374;SDS011;35400;45.472;-122.822;2024-01-30T00:09:20;1.10;;;1.10;;
6374;SDS011;35400;45.472;-122.822;2024-01-30T00:11:47;1.80;;;1.20;;
6374;SDS011;35400;45.472;-122.822;2024-01-30T00:14:14;2.17;;;1.20;;
6374;SDS011;35400;45.472;-122.822;2024-01-30T00:16:40;2.30;;;1.23;;
6374;SDS011;35400;45.472;-122.822;2024-01-30T00:19:07;1.17;;;1.07;;
6374;SDS011;35400;45.472;-122.822;2024-01-30T00:21:34;1.40;;;1.13;;
6374;SDS011;35400;45.472;-122.822;2024-01-30T00:24:01;1.30;;;1.20;;
6374;SDS011;35400;45.472;-122.822;2024-01-30T00:26:28;1.20;;;1.10;;
6374;SDS011;35400;45.472;-122.822;2024-01-30T00:28:55;1.40;;;1.30;;
6374;SDS011;35400;45.472;-122.822;2024-01-30T00:31:22;2.33;;;1.40;;
6374;SDS011;35400;45.472;-122.822;2024-01-30T00:33:48;1.20;;;1.10;;
6374;SDS011;35400;45.472;-122.822;2024-01-30T00:36:15;1.53;;;1.43;;
6374;SDS011;35400;45.472;-122.822;2024-01-30T00:38:42;1.07;;;1.00;;
6374;SDS011;35400;45.472;-122.822;2024-01-30T00:41:09;1.37;;;1.23;;
6374;SDS011;35400;45.472;-122.822;2024-01-30T00:43:36;1.63;;;1.30;;
6374;SDS011;35400;45.472;-122.822;2024-01-30T00:46:03;1.53;;;1.43;;
6374;SDS011;35400;45.472;-122.822;2024-01-30T00:48:30;1.33;;;1.23;;
6374;SDS011;35400;45.472;-122.822;2024-01-30T00:50:57;1.23;;;1.10;;
6374;SDS011;35400;45.472;-122.822;2024-01-30T00:53:24;1.43;;;1.20;;
6374;SDS011;35400;45.472;-122.822;2024-01-30T00:55:51;1.30;;;1.20;;
6374;SDS011;35400;45.472;-122.822;2024-01-30T00:58:17;1.13;;;1.10;;
6374;SDS011;35400;45.472;-122.822;2024-01-30T01:00:45;1.20;;;1.00;;
6374;SDS011;35400;45.472;-122.822;2024-01-30T01:03:12;1.00;;;1.00;;
6374;SDS011;35400;45.472;-122.822;2024-01-30T01:05:39;2.60;;;1.20;;
6374;SDS011;35400;45.472;-122.822;2024-01-30T01:08:06;2.77;;;1.20;;
6374;SDS011;35400;45.472;-122.822;2024-01-30T01:10:33;2.57;;;1.40;;
6374;SDS011;35400;45.472;-122.822;2024-01-30T01:13:00;2.87;;;1.20;;
6374;SDS011;35400;45.472;-122.822;2024-01-30T01:15:26;1.77;;;1.40;;
6374;SDS011;35400;45.472;-122.822;2024-01-30T01:17:53;1.40;;;1.30;;
6374;SDS011;35400;45.472;-122.822;2024-01-30T01:20:20;1.67;;;1.20;;
6374;SDS011;35400;45.472;-122.822;2024-01-30T01:22:47;2.00;;;1.60;;
6374;SDS011;35400;45.472;-122.822;2024-01-30T01:25:14;2.23;;;1.57;;
6374;SDS011;35400;45.472;-122.822;2024-01-30T01:27:41;2.03;;;1.43;;
6374;SDS011;35400;45.472;-122.822;2024-01-30T01:30:09;1.40;;;1.30;;
6374;SDS011;35400;45.472;-122.822;2024-01-30T01:32:37;1.93;;;1.73;;
6374;SDS011;35400;45.472;-122.822;2024-01-30T01:35:04;2.93;;;1.90;;
6374;SDS011;35400;45.472;-122.822;2024-01-30T01:37:33;3.07;;;2.60;;
6374;SDS011;35400;45.472;-122.822;2024-01-30T01:40:00;2.63;;;2.43;;
6374;SDS011;35400;45.472;-122.822;2024-01-30T01:42:27;4.20;;;2.97;;
6374;SDS011;35400;45.472;-122.822;2024-01-30T01:44:54;3.20;;;2.67;;
6374;SDS011;35400;45.472;-122.822;2024-01-30T01:47:21;4.07;;;2.90;;
6374;SDS011;35400;45.472;-122.822;2024-01-30T01:49:48;4.73;;;3.00;;
6374;SDS011;35400;45.472;-122.822;2024-01-30T01:52:15;3.90;;;2.83;;
6374;SDS011;35400;45.472;-122.822;2024-01-30T01:54:42;3.10;;;2.90;;
6374;SDS011;35400;45.472;-122.822;2024-01-30T01:57:09;3.30;;;3.00;;
6374;SDS011;35400;45.472;-122.822;2024-01-30T01:59:36;3.23;;;2.70;;
6374;SDS011;35400;45.472;-122.822;2024-01-30T02:02:03;5.40;;;3.27;;
6374;SDS011;35400;45.472;-122.822;2024-01-30T02:04:33;4.40;;;3.43;;
6374;SDS011;35400;45.472;-122.822;2024-01-30T02:07:00;4.77;;;3.67;;
6374;SDS011;35400;45.472;-122.822;2024-01-30T02:09:27;4.23;;;3.53;;
6374;SDS011;35400;45.472;-122.822;2024-01-30T02:11:53;4.10;;;3.10;;
6374;SDS011;35400;45.472;-122.822;2024-01-30T02:14:21;3.40;;;3.07;;
6374;SDS011;35400;45.472;-122.822;2024-01-30T02:16:47;5.50;;;4.30;;
6374;SDS011;35400;45.472;-122.822;2024-01-30T02:19:14;4.93;;;3.40;;
6374;SDS011;35400;45.472;-122.822;2024-01-30T02:21:41;4.20;;;3.80;;
6374;SDS011;35400;45.472;-122.822;2024-01-30T02:24:08;4.73;;;3.77;;
6374;SDS011;35400;45.472;-122.822;2024-01-30T02:26:35;5.27;;;4.07;;
6374;SDS011;35400;45.472;-122.822;2024-01-30T02:29:01;5.70;;;4.33;;
6374;SDS011;35400;45.472;-122.822;2024-01-30T02:31:28;6.03;;;5.00;;
6374;SDS011;35400;45.472;-122.822;2024-01-30T02:33:55;7.50;;;4.53;;
6374;SDS011;35400;45.472;-122.822;2024-01-30T02:36:22;5.50;;;4.73;;
6374;SDS011;35400;45.472;-122.822;2024-01-30T02:38:48;4.97;;;4.23;;
6374;SDS011;35400;45.472;-122.822;2024-01-30T02:41:15;4.77;;;4.20;;
6374;SDS011;35400;45.472;-122.822;2024-01-30T02:43:42;3.90;;;3.53;;
6374;SDS011;35400;45.472;-122.822;2024-01-30T02:46:09;6.00;;;3.90;;
6374;SDS011;35400;45.472;-122.822;2024-01-30T02:48:36;5.00;;;3.60;;
6374;SDS011;35400;45.472;-122.822;2024-01-30T02:51:04;4.93;;;4.00;;
6374;SDS011;35400;45.472;-122.822;2024-01-30T02:53:32;4.27;;;3.67;;
6374;SDS011;35400;45.472;-122.822;2024-01-30T02:55:58;4.07;;;3.40;;
6374;SDS011;35400;45.472;-122.822;2024-01-30T02:58:25;4.80;;;4.30;;
6374;SDS011;35400;45.472;-122.822;2024-01-30T03:00:52;7.40;;;4.83;;
6374;SDS011;35400;45.472;-122.822;2024-01-30T03:03:19;3.73;;;3.40;;
6374;SDS011;35400;45.472;-122.822;2024-01-30T03:05:46;3.83;;;3.43;;
6374;SDS011;35400;45.472;-122.822;2024-01-30T03:08:13;4.37;;;3.03;;
6374;SDS011;35400;45.472;-122.822;2024-01-30T03:10:39;3.23;;;2.43;;
6374;SDS011;35400;45.472;-122.822;2024-01-30T03:13:06;2.97;;;2.67;;
6374;SDS011;35400;45.472;-122.822;2024-01-30T03:15:33;3.43;;;2.50;;
6374;SDS011;35400;45.472;-122.822;2024-01-30T03:18:00;3.30;;;2.70;;
6374;SDS011;35400;45.472;-122.822;2024-01-30T03:20:27;2.30;;;1.90;;
6374;SDS011;35400;45.472;-122.822;2024-01-30T03:22:55;3.07;;;2.17;;
6374;SDS011;35400;45.472;-122.822;2024-01-30T03:25:22;2.23;;;2.03;;
6374;SDS011;35400;45.472;-122.822;2024-01-30T03:27:48;3.33;;;1.90;;
6374;SDS011;35400;45.472;-122.822;2024-01-30T03:30:15;4.90;;;2.30;;
6374;SDS011;35400;45.472;-122.822;2024-01-30T03:32:43;2.63;;;2.20;;
6374;SDS011;35400;45.472;-122.822;2024-01-30T03:35:10;2.40;;;1.90;;
6374;SDS011;35400;45.472;-122.822;2024-01-30T03:37:36;2.60;;;1.40;;
6374;SDS011;35400;45.472;-122.822;2024-01-30T03:40:03;1.43;;;1.33;;
6374;SDS011;35400;45.472;-122.822;2024-01-30T03:42:31;1.43;;;1.20;;
6374;SDS011;35400;45.472;-122.822;2024-01-30T03:44:57;2.70;;;1.40;;
6374;SDS011;35400;45.472;-122.822;2024-01-30T03:47:24;2.43;;;1.63;;
6374;SDS011;35400;45.472;-122.822;2024-01-30T03:49:51;1.67;;;1.50;;
6374;SDS011;35400;45.472;-122.822;2024-01-30T03:52:18;1.53;;;1.40;;
6374;SDS011;35400;45.472;-122.822;2024-01-30T03:54:44;2.10;;;1.87;;
6374;SDS011;35400;45.472;-122.822;2024-01-30T03:57:11;2.67;;;1.70;;
6374;SDS011;35400;45.472;-122.822;2024-01-30T03:59:41;2.23;;;1.40;;
6374;SDS011;35400;45.472;-122.822;2024-01-30T04:02:09;1.93;;;1.07;;
6374;SDS011;35400;45.472;-122.822;2024-01-30T04:04:37;1.10;;;1.10;;
6374;SDS011;35400;45.472;-122.822;2024-01-30T04:07:04;1.03;;;0.97;;
6374;SDS011;35400;45.472;-122.822;2024-01-30T04:09:31;1.00;;;0.97;;
6374;SDS011;35400;45.472;-122.822;2024-01-30T04:11:58;0.90;;;0.90;;
6374;SDS011;35400;45.472;-122.822;2024-01-30T04:14:25;0.93;;;0.90;;
6374;SDS011;35400;45.472;-122.822;2024-01-30T04:16:52;1.23;;;1.10;;
6374;SDS011;35400;45.472;-122.822;2024-01-30T04:19:18;1.20;;;1.10;;
6374;SDS011;35400;45.472;-122.822;2024-01-30T04:21:45;1.30;;;1.20;;
6374;SDS011;35400;45.472;-122.822;2024-01-30T04:24:12;1.50;;;1.20;;
6374;SDS011;35400;45.472;-122.822;2024-01-30T04:26:39;1.00;;;1.00;;
6374;SDS011;35400;45.472;-122.822;2024-01-30T04:29:06;1.73;;;1.60;;
6374;SDS011;35400;45.472;-122.822;2024-01-30T04:31:33;1.30;;;1.20;;
6374;SDS011;35400;45.472;-122.822;2024-01-30T04:34:03;1.57;;;1.20;;
6374;SDS011;35400;45.472;-122.822;2024-01-30T04:36:30;1.63;;;1.53;;
6374;SDS011;35400;45.472;-122.822;2024-01-30T04:38:56;1.67;;;1.57;;
6374;SDS011;35400;45.472;-122.822;2024-01-30T04:41:23;2.80;;;1.40;;
6374;SDS011;35400;45.472;-122.822;2024-01-30T04:43:51;3.67;;;1.90;;
6374;SDS011;35400;45.472;-122.822;2024-01-30T04:46:18;2.03;;;1.63;;
6374;SDS011;35400;45.472;-122.822;2024-01-30T04:48:45;2.27;;;1.60;;
6374;SDS011;35400;45.472;-122.822;2024-01-30T04:51:12;2.37;;;1.70;;
6374;SDS011;35400;45.472;-122.822;2024-01-30T04:53:38;2.43;;;1.80;;
6374;SDS011;35400;45.472;-122.822;2024-01-30T04:56:05;2.77;;;1.80;;
6374;SDS011;35400;45.472;-122.822;2024-01-30T04:58:32;2.70;;;1.87;;
6374;SDS011;35400;45.472;-122.822;2024-01-30T05:00:59;2.10;;;1.70;;
6374;SDS011;35400;45.472;-122.822;2024-01-30T05:03:26;1.90;;;1.70;;
6374;SDS011;35400;45.472;-122.822;2024-01-30T05:05:53;2.97;;;2.30;;
6374;SDS011;35400;45.472;-122.822;2024-01-30T05:08:19;2.40;;;1.93;;
6374;SDS011;35400;45.472;-122.822;2024-01-30T05:10:46;1.50;;;1.40;;
6374;SDS011;35400;45.472;-122.822;2024-01-30T05:13:13;1.60;;;1.50;;
6374;SDS011;35400;45.472;-122.822;2024-01-30T05:15:40;2.43;;;1.43;;
6374;SDS011;35400;45.472;-122.822;2024-01-30T05:18:07;2.90;;;2.37;;
6374;SDS011;35400;45.472;-122.822;2024-01-30T05:20:33;4.27;;;3.33;;
6374;SDS011;35400;45.472;-122.822;2024-01-30T05:23:00;2.83;;;2.20;;
6374;SDS011;35400;45.472;-122.822;2024-01-30T05:25:27;2.00;;;1.80;;
6374;SDS011;35400;45.472;-122.822;2024-01-30T05:27:54;4.80;;;2.53;;
6374;SDS011;35400;45.472;-122.822;2024-01-30T05:30:22;4.37;;;3.10;;
6374;SDS011;35400;45.472;-122.822;2024-01-30T05:32:49;3.53;;;2.50;;
6374;SDS011;35400;45.472;-122.822;2024-01-30T05:35:16;3.70;;;3.03;;
6374;SDS011;35400;45.472;-122.822;2024-01-30T05:37:42;2.67;;;2.10;;
6374;SDS011;35400;45.472;-122.822;2024-01-30T05:40:09;2.40;;;2.20;;
6374;SDS011;35400;45.472;-122.822;2024-01-30T05:42:37;2.90;;;2.37;;
6374;SDS011;35400;45.472;-122.822;2024-01-30T05:45:03;3.27;;;2.30;;
6374;SDS011;35400;45.472;-122.822;2024-01-30T05:47:31;3.43;;;1.80;;
6374;SDS011;35400;45.472;-122.822;2024-01-30T05:49:57;2.73;;;2.40;;
6374;SDS011;35400;45.472;-122.822;2024-01-30T05:52:24;1.60;;;1.50;;
6374;SDS011;35400;45.472;-122.822;2024-01-30T05:54:51;2.23;;;1.80;;
6374;SDS011;35400;45.472;-122.822;2024-01-30T05:57:18;2.70;;;2.00;;
6374;SDS011;35400;45.472;-122.822;2024-01-30T05:59:45;3.73;;;2.13;;
6374;SDS011;35400;45.472;-122.822;2024-01-30T06:02:13;3.47;;;2.00;;
6374;SDS011;35400;45.472;-122.822;2024-01-30T06:04:40;2.30;;;2.10;;
6374;SDS011;35400;45.472;-122.822;2024-01-30T06:07:07;2.33;;;2.13;;
6374;SDS011;35400;45.472;-122.822;2024-01-30T06:09:34;5.40;;;1.63;;
6374;SDS011;35400;45.472;-122.822;2024-01-30T06:12:01;2.50;;;2.30;;
6374;SDS011;35400;45.472;-122.822;2024-01-30T06:14:28;3.50;;;1.63;;
6374;SDS011;35400;45.472;-122.822;2024-01-30T06:16:54;3.10;;;1.83;;
6374;SDS011;35400;45.472;-122.822;2024-01-30T06:19:21;2.53;;;1.97;;
6374;SDS011;35400;45.472;-122.822;2024-01-30T06:21:48;2.30;;;2.10;;
6374;SDS011;35400;45.472;-122.822;2024-01-30T06:24:15;2.13;;;1.93;;
6374;SDS011;35400;45.472;-122.822;2024-01-30T06:26:42;2.63;;;2.43;;
6374;SDS011;35400;45.472;-122.822;2024-01-30T06:29:09;3.77;;;2.33;;
6374;SDS011;35400;45.472;-122.822;2024-01-30T06:31:39;4.03;;;2.40;;
6374;SDS011;35400;45.472;-122.822;2024-01-30T06:34:07;3.33;;;2.10;;
6374;SDS011;35400;45.472;-122.822;2024-01-30T06:36:35;3.57;;;2.60;;
6374;SDS011;35400;45.472;-122.822;2024-01-30T06:39:03;2.60;;;2.40;;
6374;SDS011;35400;45.472;-122.822;2024-01-30T06:41:31;5.23;;;2.20;;
6374;SDS011;35400;45.472;-122.822;2024-01-30T06:43:58;3.20;;;2.90;;
6374;SDS011;35400;45.472;-122.822;2024-01-30T06:46:25;2.10;;;1.97;;
6374;SDS011;35400;45.472;-122.822;2024-01-30T06:48:52;3.77;;;2.17;;
6374;SDS011;35400;45.472;-122.822;2024-01-30T06:51:19;4.47;;;2.30;;
6374;SDS011;35400;45.472;-122.822;2024-01-30T06:53:46;2.57;;;2.00;;
6374;SDS011;35400;45.472;-122.822;2024-01-30T06:56:13;3.13;;;2.40;;
6374;SDS011;35400;45.472;-122.822;2024-01-30T06:58:40;2.80;;;2.30;;
6374;SDS011;35400;45.472;-122.822;2024-01-30T07:01:06;2.30;;;2.10;;
6374;SDS011;35400;45.472;-122.822;2024-01-30T07:03:33;2.33;;;2.13;;
6374;SDS011;35400;45.472;-122.822;2024-01-30T07:06:00;2.60;;;1.80;;
6374;SDS011;35400;45.472;-122.822;2024-01-30T07:08:27;3.30;;;2.60;;
6374;SDS011;35400;45.472;-122.822;2024-01-30T07:10:54;3.17;;;2.47;;
6374;SDS011;35400;45.472;-122.822;2024-01-30T07:13:21;2.97;;;2.63;;
6374;SDS011;35400;45.472;-122.822;2024-01-30T07:15:48;4.43;;;2.47;;
6374;SDS011;35400;45.472;-122.822;2024-01-30T07:18:15;3.17;;;2.30;;
6374;SDS011;35400;45.472;-122.822;2024-01-30T07:20:42;2.90;;;2.37;;
6374;SDS011;35400;45.472;-122.822;2024-01-30T07:23:12;2.70;;;2.37;;
6374;SDS011;35400;45.472;-122.822;2024-01-30T07:25:41;2.10;;;2.00;;
6374;SDS011;35400;45.472;-122.822;2024-01-30T07:28:08;3.40;;;2.20;;
6374;SDS011;35400;45.472;-122.822;2024-01-30T07:30:36;3.30;;;2.40;;
6374;SDS011;35400;45.472;-122.822;2024-01-30T07:33:03;2.60;;;2.40;;
6374;SDS011;35400;45.472;-122.822;2024-01-30T07:35:30;3.20;;;2.00;;
6374;SDS011;35400;45.472;-122.822;2024-01-30T07:37:57;2.20;;;2.00;;
6374;SDS011;35400;45.472;-122.822;2024-01-30T07:40:24;3.07;;;2.13;;
6374;SDS011;35400;45.472;-122.822;2024-01-30T07:42:50;1.70;;;1.60;;
6374;SDS011;35400;45.472;-122.822;2024-01-30T07:45:19;2.10;;;1.90;;
6374;SDS011;35400;45.472;-122.822;2024-01-30T07:47:50;2.50;;;2.07;;
6374;SDS011;35400;45.472;-122.822;2024-01-30T07:50:17;1.87;;;1.77;;
6374;SDS011;35400;45.472;-122.822;2024-01-30T07:52:44;3.80;;;2.57;;
6374;SDS011;35400;45.472;-122.822;2024-01-30T07:55:11;2.60;;;1.90;;
6374;SDS011;35400;45.472;-122.822;2024-01-30T07:57:38;2.57;;;2.03;;
6374;SDS011;35400;45.472;-122.822;2024-01-30T08:00:05;2.10;;;1.90;;
6374;SDS011;35400;45.472;-122.822;2024-01-30T08:02:34;2.30;;;2.00;;
6374;SDS011;35400;45.472;-122.822;2024-01-30T08:05:00;2.30;;;2.10;;
6374;SDS011;35400;45.472;-122.822;2024-01-30T08:07:27;2.10;;;1.90;;
6374;SDS011;35400;45.472;-122.822;2024-01-30T08:09:56;3.83;;;1.70;;
6374;SDS011;35400;45.472;-122.822;2024-01-30T08:12:23;1.70;;;1.60;;
6374;SDS011;35400;45.472;-122.822;2024-01-30T08:14:49;3.17;;;1.90;;
6374;SDS011;35400;45.472;-122.822;2024-01-30T08:17:16;1.70;;;1.60;;
6374;SDS011;35400;45.472;-122.822;2024-01-30T08:19:43;1.97;;;1.87;;
6374;SDS011;35400;45.472;-122.822;2024-01-30T08:22:12;1.77;;;1.50;;
6374;SDS011;35400;45.472;-122.822;2024-01-30T08:24:40;1.53;;;1.43;;
6374;SDS011;35400;45.472;-122.822;2024-01-30T08:27:07;1.63;;;1.53;;
6374;SDS011;35400;45.472;-122.822;2024-01-30T08:29:37;1.70;;;1.60;;
6374;SDS011;35400;45.472;-122.822;2024-01-30T08:32:05;2.03;;;1.73;;
6374;SDS011;35400;45.472;-122.822;2024-01-30T08:34:32;3.70;;;2.00;;
6374;SDS011;35400;45.472;-122.822;2024-01-30T08:36:59;2.13;;;1.73;;
6374;SDS011;35400;45.472;-122.822;2024-01-30T08:39:26;1.73;;;1.63;;
6374;SDS011;35400;45.472;-122.822;2024-01-30T08:41:53;3.23;;;1.73;;
6374;SDS011;35400;45.472;-122.822;2024-01-30T08:44:20;4.33;;;2.23;;
6374;SDS011;35400;45.472;-122.822;2024-01-30T08:46:46;2.57;;;1.90;;
6374;SDS011;35400;45.472;-122.822;2024-01-30T08:49:19;2.33;;;1.90;;
6374;SDS011;35400;45.472;-122.822;2024-01-30T08:51:46;2.27;;;2.07;;
6374;SDS011;35400;45.472;-122.822;2024-01-30T08:54:13;2.13;;;1.90;;
6374;SDS011;35400;45.472;-122.822;2024-01-30T08:56:40;3.80;;;2.10;;
6374;SDS011;35400;45.472;-122.822;2024-01-30T08:59:07;2.10;;;1.90;;
6374;SDS011;35400;45.472;-122.822;2024-01-30T09:01:33;3.63;;;1.87;;
6374;SDS011;35400;45.472;-122.822;2024-01-30T09:04:00;2.13;;;1.93;;
6374;SDS011;35400;45.472;-122.822;2024-01-30T09:06:27;2.00;;;1.80;;
6374;SDS011;35400;45.472;-122.822;2024-01-30T09:08:54;3.00;;;2.00;;
6374;SDS011;35400;45.472;-122.822;2024-01-30T09:11:23;2.50;;;1.80;;
6374;SDS011;35400;45.472;-122.822;2024-01-30T09:13:50;1.93;;;1.70;;
6374;SDS011;35400;45.472;-122.822;2024-01-30T09:16:17;3.30;;;1.80;;
6374;SDS011;35400;45.472;-122.822;2024-01-30T09:18:44;3.07;;;1.90;;
6374;SDS011;35400;45.472;-122.822;2024-01-30T09:21:10;2.57;;;1.97;;
6374;SDS011;35400;45.472;-122.822;2024-01-30T09:23:38;3.30;;;1.67;;
6374;SDS011;35400;45.472;-122.822;2024-01-30T09:26:05;2.03;;;1.60;;
6374;SDS011;35400;45.472;-122.822;2024-01-30T09:28:31;1.77;;;1.63;;
6374;SDS011;35400;45.472;-122.822;2024-01-30T09:30:58;2.10;;;1.90;;
6374;SDS011;35400;45.472;-122.822;2024-01-30T09:33:25;2.13;;;1.93;;
6374;SDS011;35400;45.472;-122.822;2024-01-30T09:35:52;2.90;;;2.10;;
6374;SDS011;35400;45.472;-122.822;2024-01-30T09:38:19;2.27;;;2.07;;
6374;SDS011;35400;45.472;-122.822;2024-01-30T09:40:46;2.30;;;2.10;;
6374;SDS011;35400;45.472;-122.822;2024-01-30T09:43:19;2.20;;;2.00;;
6374;SDS011;35400;45.472;-122.822;2024-01-30T09:45:52;2.60;;;2.10;;
6374;SDS011;35400;45.472;-122.822;2024-01-30T09:48:20;1.93;;;1.77;;
6374;SDS011;35400;45.472;-122.822;2024-01-30T09:50:48;2.93;;;1.90;;
6374;SDS011;35400;45.472;-122.822;2024-01-30T09:53:16;2.10;;;1.90;;
6374;SDS011;35400;45.472;-122.822;2024-01-30T09:55:43;2.23;;;1.90;;
6374;SDS011;35400;45.472;-122.822;2024-01-30T09:58:11;2.63;;;1.87;;
6374;SDS011;35400;45.472;-122.822;2024-01-30T10:00:39;3.17;;;1.70;;
6374;SDS011;35400;45.472;-122.822;2024-01-30T10:03:06;1.97;;;1.63;;
6374;SDS011;35400;45.472;-122.822;2024-01-30T10:05:32;2.40;;;2.20;;
6374;SDS011;35400;45.472;-122.822;2024-01-30T10:08:01;3.70;;;2.10;;
6374;SDS011;35400;45.472;-122.822;2024-01-30T10:10:35;3.10;;;2.07;;
6374;SDS011;35400;45.472;-122.822;2024-01-30T10:13:02;2.10;;;1.90;;
6374;SDS011;35400;45.472;-122.822;2024-01-30T10:15:29;3.03;;;2.50;;
6374;SDS011;35400;45.472;-122.822;2024-01-30T10:17:56;2.63;;;1.90;;
6374;SDS011;35400;45.472;-122.822;2024-01-30T10:20:24;2.23;;;2.07;;
6374;SDS011;35400;45.472;-122.822;2024-01-30T10:22:51;2.13;;;1.93;;
6374;SDS011;35400;45.472;-122.822;2024-01-30T10:25:18;4.20;;;1.73;;
6374;SDS011;35400;45.472;-122.822;2024-01-30T10:27:47;1.80;;;1.70;;
6374;SDS011;35400;45.472;-122.822;2024-01-30T10:30:21;2.30;;;2.10;;
6374;SDS011;35400;45.472;-122.822;2024-01-30T10:32:48;2.07;;;1.87;;
6374;SDS011;35400;45.472;-122.822;2024-01-30T10:35:17;2.10;;;1.90;;
6374;SDS011;35400;45.472;-122.822;2024-01-30T10:37:44;4.00;;;2.13;;
6374;SDS011;35400;45.472;-122.822;2024-01-30T10:40:14;2.77;;;1.70;;
6374;SDS011;35400;45.472;-122.822;2024-01-30T10:42:45;2.10;;;1.80;;
6374;SDS011;35400;45.472;-122.822;2024-01-30T10:45:12;1.70;;;1.60;;
6374;SDS011;35400;45.472;-122.822;2024-01-30T10:47:43;2.60;;;1.93;;
6374;SDS011;35400;45.472;-122.822;2024-01-30T10:50:26;4.00;;;2.30;;
6374;SDS011;35400;45.472;-122.822;2024-01-30T10:52:54;2.87;;;2.13;;
6374;SDS011;35400;45.472;-122.822;2024-01-30T10:55:21;3.23;;;2.47;;
6374;SDS011;35400;45.472;-122.822;2024-01-30T10:57:49;3.77;;;2.43;;
6374;SDS011;35400;45.472;-122.822;2024-01-30T11:00:16;2.93;;;2.20;;
6374;SDS011;35400;45.472;-122.822;2024-01-30T11:02:48;3.13;;;2.50;;
6374;SDS011;35400;45.472;-122.822;2024-01-30T11:05:15;3.77;;;2.53;;
6374;SDS011;35400;45.472;-122.822;2024-01-30T11:07:53;2.90;;;2.60;;
6374;SDS011;35400;45.472;-122.822;2024-01-30T11:10:20;5.13;;;3.30;;
6374;SDS011;35400;45.472;-122.822;2024-01-30T11:12:46;3.23;;;2.93;;
6374;SDS011;35400;45.472;-122.822;2024-01-30T11:15:16;3.90;;;2.60;;
6374;SDS011;35400;45.472;-122.822;2024-01-30T11:17:43;3.47;;;2.80;;
6374;SDS011;35400;45.472;-122.822;2024-01-30T11:20:20;3.67;;;3.10;;
6374;SDS011;35400;45.472;-122.822;2024-01-30T11:22:51;2.73;;;2.47;;
6374;SDS011;35400;45.472;-122.822;2024-01-30T11:25:22;3.63;;;2.50;;
6374;SDS011;35400;45.472;-122.822;2024-01-30T11:27:51;3.93;;;3.00;;
6374;SDS011;35400;45.472;-122.822;2024-01-30T11:30:26;3.40;;;3.00;;
6374;SDS011;35400;45.472;-122.822;2024-01-30T11:33:07;3.23;;;2.73;;
6374;SDS011;35400;45.472;-122.822;2024-01-30T11:35:35;3.63;;;2.77;;
6374;SDS011;35400;45.472;-122.822;2024-01-30T11:38:04;4.63;;;3.00;;
6374;SDS011;35400;45.472;-122.822;2024-01-30T11:40:33;3.87;;;2.40;;
6374;SDS011;35400;45.472;-122.822;2024-01-30T11:43:01;4.37;;;2.73;;
6374;SDS011;35400;45.472;-122.822;2024-01-30T11:45:30;3.93;;;2.87;;
6374;SDS011;35400;45.472;-122.822;2024-01-30T11:47:58;4.13;;;2.87;;
6374;SDS011;35400;45.472;-122.822;2024-01-30T11:50:27;3.33;;;2.23;;
6374;SDS011;35400;45.472;-122.822;2024-01-30T11:52:54;3.90;;;2.67;;
6374;SDS011;35400;45.472;-122.822;2024-01-30T11:55:23;3.00;;;2.53;;
6374;SDS011;35400;45.472;-122.822;2024-01-30T11:57:50;3.27;;;2.57;;
6374;SDS011;35400;45.472;-122.822;2024-01-30T12:00:17;3.27;;;2.93;;
6374;SDS011;35400;45.472;-122.822;2024-01-30T12:02:48;3.43;;;3.13;;
6374;SDS011;35400;45.472;-122.822;2024-01-30T12:05:18;2.93;;;2.60;;
6374;SDS011;35400;45.472;-122.822;2024-01-30T12:07:46;3.47;;;2.67;;
6374;SDS011;35400;45.472;-122.822;2024-01-30T12:10:13;3.10;;;2.80;;
6374;SDS011;35400;45.472;-122.822;2024-01-30T12:12:45;4.80;;;3.07;;
6374;SDS011;35400;45.472;-122.822;2024-01-30T12:15:14;4.37;;;2.57;;
6374;SDS011;35400;45.472;-122.822;2024-01-30T12:17:41;3.23;;;2.63;;
6374;SDS011;35400;45.472;-122.822;2024-01-30T12:20:12;2.80;;;2.30;;
6374;SDS011;35400;45.472;-122.822;2024-01-30T12:22:41;3.77;;;2.40;;
6374;SDS011;35400;45.472;-122.822;2024-01-30T12:25:09;3.47;;;2.70;;
6374;SDS011;35400;45.472;-122.822;2024-01-30T12:27:37;4.53;;;2.87;;
6374;SDS011;35400;45.472;-122.822;2024-01-30T12:30:05;2.57;;;2.37;;
6374;SDS011;35400;45.472;-122.822;2024-01-30T12:32:36;3.87;;;2.37;;
6374;SDS011;35400;45.472;-122.822;2024-01-30T12:35:15;2.60;;;2.40;;
6374;SDS011;35400;45.472;-122.822;2024-01-30T12:37:46;4.53;;;2.53;;
6374;SDS011;35400;45.472;-122.822;2024-01-30T12:40:14;4.57;;;2.87;;
6374;SDS011;35400;45.472;-122.822;2024-01-30T12:42:41;4.50;;;2.67;;
6374;SDS011;35400;45.472;-122.822;2024-01-30T12:45:09;4.00;;;2.40;;
6374;SDS011;35400;45.472;-122.822;2024-01-30T12:47:36;2.87;;;2.30;;
6374;SDS011;35400;45.472;-122.822;2024-01-30T12:50:02;3.23;;;2.50;;
6374;SDS011;35400;45.472;-122.822;2024-01-30T12:52:30;2.83;;;2.20;;
6374;SDS011;35400;45.472;-122.822;2024-01-30T12:54:57;2.63;;;2.43;;
6374;SDS011;35400;45.472;-122.822;2024-01-30T12:57:24;2.50;;;2.20;;
6374;SDS011;35400;45.472;-122.822;2024-01-30T12:59:51;2.97;;;2.20;;
6374;SDS011;35400;45.472;-122.822;2024-01-30T13:02:17;5.50;;;2.30;;
6374;SDS011;35400;45.472;-122.822;2024-01-30T13:04:45;2.73;;;2.50;;
6374;SDS011;35400;45.472;-122.822;2024-01-30T13:07:12;3.53;;;2.50;;
6374;SDS011;35400;45.472;-122.822;2024-01-30T13:09:38;2.33;;;2.00;;
6374;SDS011;35400;45.472;-122.822;2024-01-30T13:12:05;3.43;;;2.50;;
6374;SDS011;35400;45.472;-122.822;2024-01-30T13:14:32;3.33;;;2.27;;
6374;SDS011;35400;45.472;-122.822;2024-01-30T13:16:59;2.43;;;2.20;;
6374;SDS011;35400;45.472;-122.822;2024-01-30T13:19:26;2.80;;;2.10;;
6374;SDS011;35400;45.472;-122.822;2024-01-30T13:21:53;5.20;;;2.30;;
6374;SDS011;35400;45.472;-122.822;2024-01-30T13:24:20;3.23;;;1.83;;
6374;SDS011;35400;45.472;-122.822;2024-01-30T13:26:47;2.57;;;2.20;;
6374;SDS011;35400;45.472;-122.822;2024-01-30T13:29:14;3.30;;;2.60;;
6374;SDS011;35400;45.472;-122.822;2024-01-30T13:31:41;3.97;;;2.50;;
6374;SDS011;35400;45.472;-122.822;2024-01-30T13:34:09;3.17;;;2.20;;
6374;SDS011;35400;45.472;-122.822;2024-01-30T13:36:36;4.03;;;2.60;;
6374;SDS011;35400;45.472;-122.822;2024-01-30T13:39:04;2.53;;;2.00;;
6374;SDS011;35400;45.472;-122.822;2024-01-30T13:41:34;3.30;;;2.37;;
6374;SDS011;35400;45.472;-122.822;2024-01-30T13:44:01;2.93;;;2.30;;
6374;SDS011;35400;45.472;-122.822;2024-01-30T13:46:32;3.40;;;2.10;;
6374;SDS011;35400;45.472;-122.822;2024-01-30T13:48:58;3.60;;;2.50;;
6374;SDS011;35400;45.472;-122.822;2024-01-30T13:51:25;2.93;;;2.23;;
6374;SDS011;35400;45.472;-122.822;2024-01-30T13:53:52;2.80;;;2.00;;
6374;SDS011;35400;45.472;-122.822;2024-01-30T13:56:19;2.57;;;2.13;;
6374;SDS011;35400;45.472;-122.822;2024-01-30T13:58:50;4.03;;;2.30;;
6374;SDS011;35400;45.472;-122.822;2024-01-30T14:01:16;2.50;;;2.20;;
6374;SDS011;35400;45.472;-122.822;2024-01-30T14:03:43;3.70;;;1.80;;
6374;SDS011;35400;45.472;-122.822;2024-01-30T14:06:11;2.30;;;1.90;;
6374;SDS011;35400;45.472;-122.822;2024-01-30T14:08:38;3.33;;;2.30;;
6374;SDS011;35400;45.472;-122.822;2024-01-30T14:11:05;3.90;;;2.07;;
6374;SDS011;35400;45.472;-122.822;2024-01-30T14:13:32;2.67;;;2.00;;
6374;SDS011;35400;45.472;-122.822;2024-01-30T14:15:59;3.43;;;2.73;;
6374;SDS011;35400;45.472;-122.822;2024-01-30T14:18:26;2.53;;;2.33;;
6374;SDS011;35400;45.472;-122.822;2024-01-30T14:20:53;3.63;;;2.30;;
6374;SDS011;35400;45.472;-122.822;2024-01-30T14:23:20;1.97;;;1.87;;